Aeroporto :
LOGIN :

Iscrizione | Disclaimer

   EN    FR    IT 

 










Sommario :    VFR   VFR Marginale   IFR   IFR Intensivo   IFR Molto Intensivo
Visibilità : 
Base nubi : 
>= 8 km
>= 3000ft
5 / 8 km
1000 / 3000 ft
1500m / 5 km
500 / 1000 ft
800 / 1500m
200 / 500 ft
< 800m
< 200 ft
Simboli :   Temporali  Nebbia  Neve Forte  Precipitazioni Forti  Vento > 20 kt
SIGMETs :   Varie  Temporali  Ghiacco  Turbolenza  Onda orograficha  Ceneri Vulcaniche






- Altitudine del aeroporto : 25 ft
- Codice IATA : QCY


EGXC - RAF Coningsby

ULTIMO METAR :
  • 220950Z 27010KT 9999 SCT024 BKN040 19/13 Q1010 RMK WHT

METARs OBSOLETI :
  • 220850Z 28011KT 9999 SCT019 BKN038 18/13 Q1010 RMK WHT
  • 220750Z 27012KT 9999 SCT015 BKN070 17/13 Q1010 RMK WHT
  • 220650Z 25009KT 9999 SCT014 BKN070 16/13 Q1009 RMK GRN
  • 220550Z 22004KT CAVOK 15/13 Q1009 RMK BLU

TAF TAF EGXC
Valido dal 22 a 09 ore il 23 a 03 ore UTC


220739Z 2209/2303 27008KT 9999 FEW020 SCT025
TEMPO 2209/2212 SCT020



MetMap, La meteo Aeronautica in un colpo d'occhio ! - Copyright ORBIFLY Dicembre 2007 - Disclaimer

ORBIFLY MET'MAP TEAM :

Programmazione e sviluppo : Alexandra Zaïnal
Concezione : Baudouin d'Aumeries
Supporto tecnico e logistico : Manuel Goepfert
Aiuto : Marc-Olivier Méhu
Aiuto per la traduzione : Arnaldo La Scala




FONTI E CREDITI :

   NOAA